createdAt,value
2019-04-11T00:01:14.217Z,101548.11
2019-04-11T00:02:22.697Z,101551.47
2019-04-11T00:03:27.912Z,101549.14
2019-04-11T00:04:32.848Z,101549.06
2019-04-11T00:05:39.121Z,101548.39
2019-04-11T00:06:44.197Z,101550.69
2019-04-11T00:07:49.475Z,101554.26
2019-04-11T00:08:54.421Z,101556.38
2019-04-11T00:09:59.889Z,101548.73
2019-04-11T00:11:05.828Z,101556.96
2019-04-11T00:12:10.966Z,101550.56
2019-04-11T00:13:21.560Z,101550.86
2019-04-11T00:14:22.647Z,101551.84
2019-04-11T00:15:28.803Z,101552.23
2019-04-11T00:16:34.137Z,101551.26
2019-04-11T00:17:38.726Z,101555.41
2019-04-11T00:18:44.930Z,101555.05
2019-04-11T00:19:49.922Z,101554.97
2019-04-11T00:20:56.154Z,101556.24
2019-04-11T00:22:01.750Z,101557.66
2019-04-11T00:23:06.472Z,101556.02
2019-04-11T00:24:12.270Z,101557.08
2019-04-11T00:25:17.718Z,101559.23
2019-04-11T00:26:22.825Z,101561.12
2019-04-11T00:27:28.786Z,101560.89
2019-04-11T00:28:34.034Z,101562.46
2019-04-11T00:29:39.290Z,101561.31
2019-04-11T00:30:44.163Z,101565.54
2019-04-11T00:31:49.671Z,101558.87
2019-04-11T00:32:54.633Z,101559.19
2019-04-11T00:34:02.567Z,101555.66
2019-04-11T00:35:07.296Z,101555.09
2019-04-11T00:36:12.500Z,101566.97
2019-04-11T00:37:17.216Z,101553.77
2019-04-11T00:38:23.503Z,101556.20
2019-04-11T00:39:28.309Z,101556.58
2019-04-11T00:40:33.775Z,101559.24
2019-04-11T00:41:39.706Z,101559.48
2019-04-11T00:42:45.136Z,101558.70
2019-04-11T00:43:50.485Z,101560.13
2019-04-11T00:44:57.115Z,101561.22
2019-04-11T00:46:02.946Z,101563.89
2019-04-11T00:47:07.624Z,101559.75
2019-04-11T00:48:13.312Z,101560.39
2019-04-11T00:49:18.665Z,101561.96
2019-04-11T00:50:23.975Z,101565.22
2019-04-11T00:51:29.207Z,101558.05
2019-04-11T00:52:34.411Z,101558.19
2019-04-11T00:53:40.361Z,101564.34
2019-04-11T00:54:45.475Z,101563.66
2019-04-11T00:55:51.438Z,101565.86
2019-04-11T00:56:56.776Z,101558.83
2019-04-11T00:58:03.535Z,101565.71
2019-04-11T00:59:08.444Z,101560.93
2019-04-11T01:00:13.390Z,101558.49
2019-04-11T01:01:18.351Z,101568.06
2019-04-11T01:02:23.564Z,101567.53
2019-04-11T01:03:28.717Z,101560.33
2019-04-11T01:04:34.859Z,101569.41
2019-04-11T01:05:39.637Z,101565.03
2019-04-11T01:06:44.884Z,101566.59
2019-04-11T01:07:49.861Z,101568.67
2019-04-11T01:08:55.795Z,101567.75
2019-04-11T01:10:01.032Z,101568.41
2019-04-11T01:11:05.868Z,101571.63
2019-04-11T01:12:12.173Z,101572.00
2019-04-11T01:13:17.671Z,101570.89
2019-04-11T01:14:23.694Z,101570.11
2019-04-11T01:15:29.343Z,101567.37
2019-04-11T01:16:50.454Z,101569.00
2019-04-11T03:25:49.075Z,101637.69
2019-04-11T03:26:56.432Z,101631.45
2019-04-11T03:28:02.090Z,101629.56
2019-04-11T03:29:08.769Z,101632.12
2019-04-11T03:30:19.541Z,101631.04
2019-04-11T03:32:02.436Z,101633.25
2019-04-11T03:36:37.410Z,101640.50
2019-04-11T03:38:27.662Z,101642.59
2019-04-11T03:39:29.186Z,101642.73
2019-04-11T03:40:30.442Z,101645.13
2019-04-11T03:41:42.545Z,101643.95
2019-04-11T03:42:43.342Z,101646.37
2019-04-11T03:43:48.685Z,101648.81
2019-04-11T03:44:47.682Z,101649.55
2019-04-11T03:46:14.307Z,101648.38
2019-04-11T03:47:16.720Z,101649.28
2019-04-11T03:48:27.570Z,101655.82
2019-04-11T03:49:29.225Z,101651.89
2019-04-11T03:50:29.880Z,101652.68
2019-04-11T03:51:33.991Z,101660.22
2019-04-11T03:52:40.770Z,101653.75
2019-04-11T03:53:47.248Z,101658.94
2019-04-11T03:54:51.875Z,101663.05
2019-04-11T03:55:56.785Z,101654.59
2019-04-11T03:57:03.475Z,101654.91
2019-04-11T03:58:09.180Z,101654.40
2019-04-11T03:59:16.601Z,101661.09
2019-04-11T04:00:22.167Z,101662.69
2019-04-11T04:01:29.647Z,101652.51
2019-04-11T04:02:37.127Z,101660.19
2019-04-11T04:03:42.631Z,101657.63
2019-04-11T04:04:49.347Z,101658.50
2019-04-11T04:05:57.225Z,101665.56
2019-04-11T04:07:04.759Z,101661.83
2019-04-11T04:08:10.881Z,101666.50
2019-04-11T04:09:17.068Z,101668.23
2019-04-11T04:10:23.757Z,101672.39
2019-04-11T04:11:30.474Z,101661.09
2019-04-11T04:12:35.804Z,101671.63
2019-04-11T04:13:45.984Z,101672.56
2019-04-11T04:15:04.553Z,101670.41
2019-04-11T04:16:24.382Z,101675.02
2019-04-11T04:17:55.256Z,101675.08
2019-04-11T04:19:16.246Z,101675.55
2019-04-11T04:20:49.072Z,101677.98
2019-04-11T04:22:03.161Z,101677.63
2019-04-11T04:23:21.832Z,101679.33
2019-04-11T04:24:37.888Z,101683.27
2019-04-11T04:25:42.734Z,101686.22
2019-04-11T04:26:48.494Z,101686.72
2019-04-11T04:27:54.721Z,101684.00
2019-04-11T04:29:02.097Z,101686.77
2019-04-11T04:30:08.634Z,101690.56
2019-04-11T04:31:14.103Z,101688.88
2019-04-11T04:32:23.189Z,101690.97
2019-04-11T04:33:29.329Z,101693.84
2019-04-11T04:34:36.061Z,101691.14
2019-04-11T04:35:42.939Z,101691.50
2019-04-11T04:36:49.683Z,101695.55
2019-04-11T04:37:56.793Z,101694.54
2019-04-11T04:39:03.567Z,101698.30
2019-04-11T04:40:25.461Z,101710.00
2019-04-11T04:41:28.169Z,101705.27
2019-04-11T04:42:30.835Z,101702.16
2019-04-11T04:43:31.690Z,101706.70
2019-04-11T04:44:37.943Z,101706.50
2019-04-11T04:46:03.401Z,101702.98
2019-04-11T04:47:00.223Z,101711.16
2019-04-11T04:48:02.605Z,101711.78
2019-04-11T04:49:04.661Z,101708.72
2019-04-11T04:50:11.066Z,101707.23
2019-04-11T04:51:18.357Z,101710.80
2019-04-11T04:52:25.234Z,101715.48
2019-04-11T04:53:33.163Z,101709.15
2019-04-11T04:54:38.648Z,101719.19
2019-04-11T04:55:43.731Z,101714.44
2019-04-11T04:56:50.429Z,101719.01
2019-04-11T04:57:57.692Z,101721.64
2019-04-11T04:59:04.988Z,101724.67
2019-04-11T05:00:11.750Z,101725.96
2019-04-11T05:01:17.570Z,101728.41
2019-04-11T05:02:24.104Z,101726.90
2019-04-11T05:03:29.859Z,101728.27
2019-04-11T05:04:36.096Z,101726.48
2019-04-11T05:05:42.461Z,101732.03
2019-04-11T05:06:48.974Z,101731.16
2019-04-11T05:07:56.159Z,101729.05
2019-04-11T05:09:01.320Z,101733.32
2019-04-11T05:10:07.145Z,101729.97
2019-04-11T05:11:13.967Z,101733.53
2019-04-11T05:12:20.528Z,101729.53
2019-04-11T05:13:25.907Z,101733.27
2019-04-11T05:14:31.702Z,101736.34
2019-04-11T05:15:36.980Z,101729.61
2019-04-11T05:16:42.223Z,101733.86
2019-04-11T05:17:48.807Z,101729.64
2019-04-11T05:18:54.719Z,101729.00
2019-04-11T05:19:59.834Z,101727.27
2019-04-11T05:21:05.336Z,101732.91
2019-04-11T05:22:10.584Z,101733.52
2019-04-11T05:23:15.286Z,101738.80
2019-04-11T05:24:20.798Z,101738.34
2019-04-11T05:25:26.486Z,101737.84
2019-04-11T05:26:31.442Z,101738.20
2019-04-11T05:27:36.033Z,101742.80
2019-04-11T05:28:40.821Z,101739.73
2019-04-11T05:29:45.906Z,101748.87
2019-04-11T05:30:51.287Z,101745.78
2019-04-11T05:31:56.722Z,101748.47
2019-04-11T05:33:01.810Z,101745.28
2019-04-11T05:34:07.806Z,101748.14
2019-04-11T05:35:12.627Z,101744.77
2019-04-11T05:36:18.588Z,101747.45
2019-04-11T05:37:23.821Z,101748.27
2019-04-11T05:38:29.288Z,101743.00
2019-04-11T05:39:34.434Z,101744.73
2019-04-11T05:40:39.834Z,101750.00
2019-04-11T05:41:46.675Z,101753.19
2019-04-11T05:42:54.120Z,101755.28
2019-04-11T05:44:03.475Z,101757.09
2019-04-11T05:45:08.523Z,101761.03
2019-04-11T05:46:26.368Z,101751.30
2019-04-11T05:47:19.967Z,101753.93
2019-04-11T05:48:43.045Z,101752.73
2019-04-11T05:50:09.219Z,101755.77
2019-04-11T05:51:13.558Z,101752.20
2019-04-11T05:52:19.801Z,101760.76
2019-04-11T05:53:24.988Z,101751.36
2019-04-11T05:54:36.467Z,101759.70
2019-04-11T05:55:45.433Z,101754.97
2019-04-11T05:56:59.156Z,101766.58
2019-04-11T05:58:08.642Z,101767.88
2019-04-11T05:59:20.394Z,101765.47
2019-04-11T06:00:58.295Z,101768.33
2019-04-11T06:02:11.069Z,101766.54
2019-04-11T06:03:16.085Z,101764.27
2019-04-11T06:04:28.900Z,101764.82
2019-04-11T06:05:40.841Z,101763.75
2019-04-11T06:06:58.140Z,101765.83
2019-04-11T06:08:06.807Z,101759.66
2019-04-11T06:09:16.328Z,101768.66
2019-04-11T06:10:26.136Z,101771.61
2019-04-11T06:11:53.438Z,101766.88
2019-04-11T06:13:16.431Z,101766.63
2019-04-11T06:14:39.733Z,101766.66
2019-04-11T06:15:47.213Z,101767.78
2019-04-11T06:16:57.073Z,101775.43
2019-04-11T06:18:04.870Z,101779.83
2019-04-11T06:19:26.795Z,101772.98
2019-04-11T06:20:47.264Z,101775.59
2019-04-11T06:21:55.877Z,101781.21
2019-04-11T06:23:09.896Z,101775.63
2019-04-11T06:24:32.847Z,101786.44
2019-04-11T06:25:55.705Z,101779.63
2019-04-11T06:27:09.262Z,101786.86
2019-04-11T06:28:20.353Z,101785.38
2019-04-11T06:29:31.106Z,101785.48
2019-04-11T06:30:58.970Z,101786.44
2019-04-11T06:32:23.552Z,101787.45
2019-04-11T06:33:34.766Z,101789.28
2019-04-11T06:34:45.091Z,101787.88
2019-04-11T06:36:18.158Z,101794.52
2019-04-11T06:37:59.101Z,101795.64
2019-04-11T06:39:25.241Z,101800.81
2019-04-11T06:40:34.747Z,101796.83
2019-04-11T06:41:58.971Z,101796.17
2019-04-11T06:43:10.111Z,101792.96
2019-04-11T06:44:27.895Z,101793.56
2019-04-11T06:45:50.461Z,101799.95
2019-04-11T06:47:16.690Z,101797.03
2019-04-11T06:48:36.120Z,101795.11
2019-04-11T06:49:47.060Z,101798.19
2019-04-11T06:50:57.647Z,101799.53
2019-04-11T06:52:05.008Z,101793.41
2019-04-11T06:53:11.512Z,101795.16
2019-04-11T06:54:16.965Z,101797.89
2019-04-11T06:55:39.644Z,101802.27
2019-04-11T06:56:47.569Z,101795.99
2019-04-11T06:57:54.229Z,101804.64
2019-04-11T06:59:12.464Z,101799.94
2019-04-11T07:00:17.773Z,101806.52
2019-04-11T07:01:25.847Z,101801.63
2019-04-11T07:02:32.162Z,101800.91
2019-04-11T07:03:42.659Z,101799.28
2019-04-11T07:04:53.764Z,101809.53
2019-04-11T07:06:00.791Z,101802.20
2019-04-11T07:07:09.412Z,101802.71
2019-04-11T07:08:14.492Z,101803.00
2019-04-11T07:09:37.486Z,101801.08
2019-04-11T07:10:48.847Z,101810.92
2019-04-11T07:11:57.340Z,101810.66
2019-04-11T07:13:07.771Z,101805.86
2019-04-11T07:14:31.249Z,101798.09
2019-04-11T07:15:46.326Z,101804.98
2019-04-11T07:17:10.656Z,101802.73
2019-04-11T07:18:53.156Z,101804.81
2019-04-11T07:20:27.276Z,101808.69
2019-04-11T07:21:35.614Z,101810.33
2019-04-11T07:22:59.494Z,101816.66
2019-04-11T07:24:28.123Z,101803.55
2019-04-11T07:25:45.532Z,101802.91
2019-04-11T07:27:00.942Z,101804.83
2019-04-11T07:28:18.682Z,101813.06
2019-04-11T07:29:42.183Z,101810.84
2019-04-11T07:31:04.821Z,101809.87
2019-04-11T07:32:14.144Z,101808.19
2019-04-11T07:33:45.061Z,101807.52
2019-04-11T07:35:27.806Z,101814.83
2019-04-11T07:36:51.761Z,101813.25
2019-04-11T07:37:58.297Z,101804.69
2019-04-11T07:39:14.537Z,101812.12
2019-04-11T07:40:29.252Z,101813.44
2019-04-11T07:42:02.663Z,101808.93
2019-04-11T07:43:17.576Z,101814.38
2019-04-11T07:44:23.912Z,101814.70
2019-04-11T07:45:34.396Z,101815.41
2019-04-11T07:47:13.665Z,101812.81
2019-04-11T07:48:19.413Z,101810.27
2019-04-11T07:49:30.677Z,101808.20
2019-04-11T07:50:35.675Z,101809.86
2019-04-11T07:51:50.783Z,101813.12
2019-04-11T07:53:01.280Z,101816.05
2019-04-11T07:54:18.071Z,101815.50
2019-04-11T07:55:25.794Z,101812.43
2019-04-11T07:56:44.956Z,101816.88
2019-04-11T07:57:53.055Z,101817.05
2019-04-11T07:59:00.820Z,101815.92
2019-04-11T08:00:36.645Z,101813.11
2019-04-11T08:01:42.570Z,101822.40
2019-04-11T08:03:19.183Z,101816.82
2019-04-11T08:04:49.559Z,101806.34
2019-04-11T08:06:07.461Z,101813.37
2019-04-11T08:07:32.719Z,101808.62
2019-04-11T08:08:55.960Z,101807.45
2019-04-11T08:10:06.280Z,101809.29
2019-04-11T08:11:42.146Z,101806.16
2019-04-11T08:12:47.950Z,101809.32
2019-04-11T08:14:18.382Z,101802.42
2019-04-11T08:15:42.052Z,101807.06
2019-04-11T08:17:05.084Z,101805.08
2019-04-11T08:18:17.368Z,101803.67
2019-04-11T08:19:53.566Z,101801.66
2019-04-11T08:21:15.387Z,101799.20
2019-04-11T08:22:32.961Z,101800.21
2019-04-11T08:23:38.093Z,101800.69
2019-04-11T08:25:01.912Z,101799.89
2019-04-11T08:26:24.155Z,101801.59
2019-04-11T08:27:48.439Z,101789.20
2019-04-11T08:28:43.557Z,101793.03
2019-04-11T08:29:50.590Z,101787.02
2019-04-11T08:31:15.609Z,101778.14
2019-04-11T08:32:44.802Z,101789.28
2019-04-11T08:33:51.019Z,101797.31
2019-04-11T08:35:14.200Z,101808.09
2019-04-11T08:36:53.070Z,101822.74
2019-04-11T08:38:04.591Z,101828.80
2019-04-11T08:39:15.841Z,101824.88
2019-04-11T08:40:21.837Z,101827.88
2019-04-11T08:41:49.671Z,101828.80
2019-04-11T08:43:14.964Z,101825.78
2019-04-11T08:44:24.083Z,101822.32
2019-04-11T08:46:39.239Z,101822.94
2019-04-11T08:47:52.145Z,101812.45
2019-04-11T08:48:57.378Z,101791.08
2019-04-11T08:50:03.870Z,101748.39
2019-04-11T08:51:09.691Z,101715.55
2019-04-11T08:52:27.892Z,101679.25
2019-04-11T08:53:44.802Z,101656.14
2019-04-11T08:55:02.470Z,101650.03
2019-04-11T08:56:07.194Z,101645.28
2019-04-11T08:57:12.420Z,101643.31
2019-04-11T08:58:45.438Z,101637.78
2019-04-11T09:00:04.270Z,101636.07
2019-04-11T09:01:11.623Z,101632.22
2019-04-11T09:02:42.903Z,101631.23
2019-04-11T09:04:09.172Z,101629.72
2019-04-11T09:05:31.316Z,101755.08
2019-04-11T09:06:38.957Z,101804.32
2019-04-11T09:07:54.016Z,101815.95
2019-04-11T09:09:25.524Z,101820.86
2019-04-11T09:10:49.212Z,101624.64
2019-04-11T09:12:00.616Z,101626.92
2019-04-11T09:13:11.359Z,101622.36
2019-04-11T09:14:50.604Z,101625.21
2019-04-11T09:16:21.600Z,101629.11
2019-04-11T09:17:59.069Z,101621.17
2019-04-11T09:18:59.691Z,101624.75
2019-04-11T09:20:27.625Z,101623.49
2019-04-11T09:21:50.816Z,101632.35
2019-04-11T09:23:00.090Z,101729.70
2019-04-11T09:24:10.247Z,101641.20
2019-04-11T09:25:33.373Z,101812.00
2019-04-11T09:26:56.319Z,101643.86
2019-04-11T09:28:13.310Z,101665.47
2019-04-11T09:29:19.073Z,101694.45
2019-04-11T09:30:34.209Z,101697.30
2019-04-11T09:31:55.951Z,101721.80
2019-04-11T09:33:20.745Z,101740.84
2019-04-11T09:34:39.154Z,101709.67
2019-04-11T09:35:44.835Z,101806.53
2019-04-11T09:37:00.997Z,101683.30
2019-04-11T09:38:06.370Z,101674.39
2019-04-11T09:39:30.890Z,101680.16
2019-04-11T09:40:44.042Z,101680.53
2019-04-11T09:42:07.263Z,101814.18
2019-04-11T09:43:15.828Z,101808.16
2019-04-11T09:44:20.935Z,101795.41
2019-04-11T09:45:47.947Z,101789.38
2019-04-11T09:47:11.986Z,101801.09
2019-04-11T09:48:42.277Z,101798.77
2019-04-11T09:49:51.948Z,101783.52
2019-04-11T09:51:21.404Z,101719.61
2019-04-11T09:52:31.632Z,101729.80
2019-04-11T09:53:37.372Z,101732.05
2019-04-11T09:55:00.881Z,101729.43
2019-04-11T09:56:27.631Z,101733.03
2019-04-11T09:57:36.573Z,101757.61
2019-04-11T09:58:42.113Z,101753.59
2019-04-11T10:00:05.999Z,101749.89
2019-04-11T10:01:26.682Z,101761.95
2019-04-11T10:02:53.247Z,101771.56
2019-04-11T10:03:59.260Z,101799.55
2019-04-11T10:05:05.342Z,101803.55
2019-04-11T10:06:38.861Z,101804.98
2019-04-11T10:08:00.408Z,101800.69
2019-04-11T10:09:09.721Z,101801.75
2019-04-11T10:10:40.241Z,101794.52
2019-04-11T10:12:13.849Z,101793.94
2019-04-11T10:13:37.591Z,101798.80
2019-04-11T10:14:44.066Z,101795.72
2019-04-11T10:16:19.951Z,101792.23
2019-04-11T10:17:42.643Z,101791.63
2019-04-11T10:19:10.095Z,101786.14
2019-04-11T10:20:16.775Z,101798.56
2019-04-11T10:21:23.027Z,101795.40
2019-04-11T10:22:48.078Z,101791.02
2019-04-11T10:24:18.920Z,101787.84
2019-04-11T10:25:37.233Z,101792.43
2019-04-11T10:26:45.035Z,101784.47
2019-04-11T10:28:07.496Z,101786.73
2019-04-11T10:29:34.597Z,101784.19
2019-04-11T10:30:57.961Z,101786.56
2019-04-11T10:32:03.288Z,101784.84
2019-04-11T10:33:13.404Z,101778.31
2019-04-11T10:34:55.423Z,101793.36
2019-04-11T10:36:25.206Z,101796.27
2019-04-11T10:37:30.307Z,101798.86
2019-04-11T10:38:36.170Z,101794.20
2019-04-11T10:40:00.271Z,101796.10
2019-04-11T10:41:23.097Z,101793.45
2019-04-11T10:42:30.574Z,101801.09
2019-04-11T10:43:36.273Z,101800.20
2019-04-11T10:45:00.358Z,101790.41
2019-04-11T10:46:27.138Z,101799.51
2019-04-11T10:47:33.318Z,101799.09
2019-04-11T10:48:50.404Z,101791.84
2019-04-11T10:50:15.372Z,101801.66
2019-04-11T10:51:39.770Z,101806.11
2019-04-11T10:52:51.304Z,101810.49
2019-04-11T10:53:57.552Z,101804.98
2019-04-11T10:55:15.585Z,101799.10
2019-04-11T10:56:30.908Z,101798.17
2019-04-11T10:57:40.386Z,101795.45
2019-04-11T10:58:47.318Z,101804.47
2019-04-11T10:59:52.593Z,101795.34
2019-04-11T11:01:19.825Z,101794.27
2019-04-11T11:02:53.580Z,101797.16
2019-04-11T11:04:11.632Z,101791.74
2019-04-11T11:05:17.950Z,101795.34
2019-04-11T11:06:24.974Z,101796.00
2019-04-11T11:07:32.909Z,101793.94
2019-04-11T11:08:46.081Z,101792.67
2019-04-11T11:10:07.664Z,101792.38
2019-04-11T11:11:24.094Z,101791.22
2019-04-11T11:12:51.755Z,101797.56
2019-04-11T11:14:18.800Z,101798.41
2019-04-11T11:15:31.974Z,101790.36
2019-04-11T11:16:44.896Z,101795.98
2019-04-11T11:19:49.801Z,101799.78
2019-04-11T11:20:55.056Z,101792.69
2019-04-11T11:22:10.550Z,101800.95
2019-04-11T11:23:33.367Z,101804.79
2019-04-11T11:25:12.693Z,101798.60
2019-04-11T11:26:22.564Z,101800.72
2019-04-11T11:27:24.943Z,101794.30
2019-04-11T11:28:30.147Z,101799.24
2019-04-11T11:29:54.033Z,101799.77
2019-04-11T11:31:05.452Z,101805.61
2019-04-11T11:32:13.805Z,101797.36
2019-04-11T11:33:20.807Z,101796.86
2019-04-11T11:34:36.639Z,101803.48
2019-04-11T11:36:01.084Z,101805.56
2019-04-11T11:37:23.432Z,101797.84
2019-04-11T11:38:28.417Z,101809.13
2019-04-11T11:39:51.092Z,101800.41
2019-04-11T11:41:14.277Z,101802.86
2019-04-11T11:42:36.505Z,101791.92
2019-04-11T11:43:41.405Z,101790.78
2019-04-11T11:44:53.222Z,101798.02
2019-04-11T11:46:16.114Z,101802.04
2019-04-11T11:47:41.249Z,101793.42
2019-04-11T11:49:02.808Z,101799.98
2019-04-11T11:50:15.537Z,101793.52
2019-04-11T11:51:37.498Z,101795.85
2019-04-11T11:53:05.860Z,101802.25
2019-04-11T11:54:24.104Z,101808.31
2019-04-11T11:55:33.502Z,101813.17
2019-04-11T11:56:40.245Z,101819.44
2019-04-11T11:57:55.651Z,101816.73
2019-04-11T11:59:11.321Z,101819.59
2019-04-11T12:00:21.534Z,101817.72
2019-04-11T12:01:27.431Z,101816.30
2019-04-11T12:02:55.418Z,101809.36
2019-04-11T12:04:17.681Z,101812.05
2019-04-11T12:05:26.736Z,101807.70
2019-04-11T12:06:33.289Z,101812.13
2019-04-11T12:07:49.326Z,101811.12
2019-04-11T12:09:14.051Z,101804.98
2019-04-11T12:10:29.135Z,101801.46
2019-04-11T12:11:35.099Z,101804.80
2019-04-11T12:13:03.302Z,101800.47
2019-04-11T12:14:27.561Z,101808.21
2019-04-11T12:16:10.027Z,101802.89
2019-04-11T12:17:36.158Z,101797.31
2019-04-11T12:19:00.837Z,101794.81
2019-04-11T12:20:22.926Z,101799.48
2019-04-11T12:21:31.438Z,101799.72
2019-04-11T12:22:40.208Z,101803.09
2019-04-11T12:24:11.329Z,101795.41
2019-04-11T12:25:35.078Z,101800.03
2019-04-11T12:26:47.688Z,101802.77
2019-04-11T12:28:04.130Z,101804.11
2019-04-11T12:29:18.625Z,101801.41
2019-04-11T12:30:36.018Z,101786.31
2019-04-11T12:31:44.261Z,101773.16
2019-04-11T12:32:55.159Z,101780.80
2019-04-11T12:34:26.104Z,101779.82
2019-04-11T12:36:03.497Z,101780.16
2019-04-11T12:37:14.824Z,101778.19
2019-04-11T12:38:38.399Z,101770.75
2019-04-11T12:39:56.372Z,101772.73
2019-04-11T12:41:20.191Z,101778.38
2019-04-11T12:42:31.214Z,101771.48
2019-04-11T12:43:55.611Z,101777.41
2019-04-11T12:45:18.688Z,101777.10
2019-04-11T12:46:41.401Z,101769.44
2019-04-11T12:47:49.284Z,101771.80
2019-04-11T12:48:56.294Z,101776.45
2019-04-11T12:50:29.345Z,101776.12
2019-04-11T12:51:52.442Z,101770.23
2019-04-11T12:53:06.049Z,101762.88
2019-04-11T12:54:21.003Z,101769.22
2019-04-11T12:55:33.826Z,101768.41
2019-04-11T12:57:00.653Z,101759.72
2019-04-11T12:58:22.996Z,101766.20
2019-04-11T12:59:29.847Z,101764.16
2019-04-11T13:00:45.939Z,101764.42
2019-04-11T13:02:19.138Z,101764.69
2019-04-11T13:04:01.657Z,101763.97
2019-04-11T13:05:07.968Z,101760.20
2019-04-11T13:06:34.924Z,101763.61
2019-04-11T13:07:48.301Z,101765.82
2019-04-11T13:09:11.689Z,101759.95
2019-04-11T13:10:20.096Z,101754.77
2019-04-11T13:11:25.635Z,101756.30
2019-04-11T13:12:55.720Z,101753.48
2019-04-11T13:14:12.283Z,101758.34
2019-04-11T13:15:23.224Z,101756.38
2019-04-11T13:16:28.354Z,101747.96
2019-04-11T13:17:35.606Z,101754.92
2019-04-11T13:18:59.626Z,101749.83
2019-04-11T13:20:26.712Z,101745.89
2019-04-11T13:21:39.978Z,101757.44
2019-04-11T13:22:44.672Z,101744.45
2019-04-11T13:24:11.900Z,101748.83
2019-04-11T13:25:31.353Z,101746.37
2019-04-11T13:27:01.225Z,101740.16
2019-04-11T13:28:06.447Z,101742.05
2019-04-11T13:29:30.283Z,101743.50
2019-04-11T13:30:52.638Z,101745.00
2019-04-11T13:32:15.703Z,101746.94
2019-04-11T13:33:23.575Z,101744.30
2019-04-11T13:34:28.362Z,101741.62
2019-04-11T13:35:44.301Z,101736.34
2019-04-11T13:37:07.152Z,101741.78
2019-04-11T13:38:18.153Z,101744.39
2019-04-11T13:39:22.849Z,101742.69
2019-04-11T13:41:01.798Z,101733.38
2019-04-11T13:42:37.868Z,101736.34
2019-04-11T13:44:14.040Z,101736.30
2019-04-11T13:45:19.376Z,101738.95
2019-04-11T13:46:43.499Z,101744.84
2019-04-11T13:48:07.332Z,101737.38
2019-04-11T13:49:34.214Z,101732.72
2019-04-11T13:50:38.896Z,101733.53
2019-04-11T13:52:01.420Z,101732.73
2019-04-11T13:53:40.493Z,101729.52
2019-04-11T13:55:00.399Z,101728.16
2019-04-11T13:56:05.727Z,101742.69
2019-04-11T13:57:29.878Z,101736.80
2019-04-11T13:58:59.907Z,101732.65
2019-04-11T14:00:22.326Z,101718.88
2019-04-11T14:01:27.558Z,101729.27
2019-04-11T14:02:50.964Z,101718.72
2019-04-11T14:04:02.964Z,101724.06
2019-04-11T14:05:10.855Z,101718.42
2019-04-11T14:06:27.724Z,101723.53
2019-04-11T14:07:34.038Z,101724.42
2019-04-11T14:09:01.506Z,101722.14
2019-04-11T14:10:06.972Z,101733.31
2019-04-11T14:11:14.067Z,101727.32
2019-04-11T14:12:18.726Z,101726.80
2019-04-11T14:13:34.651Z,101718.25
2019-04-11T14:15:10.462Z,101722.89
2019-04-11T14:16:17.813Z,101721.84
2019-04-11T14:17:33.247Z,101722.43
2019-04-11T14:18:56.666Z,101720.92
2019-04-11T14:20:28.590Z,101713.55
2019-04-11T14:21:25.786Z,101717.70
2019-04-11T14:22:35.943Z,101718.70
2019-04-11T14:24:18.030Z,101716.92
2019-04-11T14:25:38.455Z,101720.45
2019-04-11T14:26:46.022Z,101716.42
2019-04-11T14:27:53.571Z,101710.06
2019-04-11T14:29:02.516Z,101716.14
2019-04-11T14:30:34.585Z,101701.84
2019-04-11T14:31:55.261Z,101715.36
2019-04-11T14:33:01.020Z,101710.73
2019-04-11T14:34:11.755Z,101713.97
2019-04-11T14:35:43.307Z,101705.28
2019-04-11T14:36:54.458Z,101709.73
2019-04-11T14:38:10.873Z,101708.02
2019-04-11T14:39:16.720Z,101707.66
2019-04-11T14:40:49.294Z,101711.52
2019-04-11T14:42:19.219Z,101708.76
2019-04-11T14:43:28.288Z,101697.06
2019-04-11T14:44:34.370Z,101702.81
2019-04-11T14:45:56.930Z,101706.71
2019-04-11T14:47:21.009Z,101701.99
2019-04-11T14:48:34.813Z,101711.61
2019-04-11T14:49:40.813Z,101709.64
2019-04-11T14:51:03.830Z,101719.02
2019-04-11T14:52:36.157Z,101713.86
2019-04-11T14:54:11.625Z,101713.56
2019-04-11T14:55:16.744Z,101706.88
2019-04-11T14:56:22.984Z,101714.75
2019-04-11T14:57:56.479Z,101705.61
2019-04-11T14:59:24.968Z,101704.89
2019-04-11T15:00:38.165Z,101705.91
2019-04-11T15:01:44.058Z,101702.20
2019-04-11T15:03:07.158Z,101704.29
2019-04-11T15:04:29.622Z,101700.00
2019-04-11T15:05:44.898Z,101709.61
2019-04-11T15:06:51.501Z,101711.95
2019-04-11T15:07:56.583Z,101702.86
2019-04-11T15:09:29.580Z,101703.61
2019-04-11T15:10:52.354Z,101699.56
2019-04-11T15:12:01.265Z,101705.29
2019-04-11T15:13:07.026Z,101702.66
2019-04-11T15:14:18.880Z,101707.41
2019-04-11T15:15:51.359Z,101703.28
2019-04-11T15:17:10.895Z,101709.94
2019-04-11T15:18:17.094Z,101715.52
2019-04-11T15:19:23.854Z,101710.44
2019-04-11T15:20:53.876Z,101709.88
2019-04-11T15:22:03.964Z,101702.23
2019-04-11T15:23:26.553Z,101714.13
2019-04-11T15:24:31.771Z,101707.39
2019-04-11T15:26:07.859Z,101709.63
2019-04-11T15:27:32.977Z,101710.14
2019-04-11T15:28:51.162Z,101710.31
2019-04-11T15:29:57.492Z,101708.50
2019-04-11T15:31:09.700Z,101712.86
2019-04-11T15:32:42.838Z,101710.83
2019-04-11T15:33:55.485Z,101715.24
2019-04-11T15:35:06.346Z,101710.57
2019-04-11T15:36:12.344Z,101710.18
2019-04-11T15:37:48.131Z,101709.31
2019-04-11T15:39:10.571Z,101713.30
2019-04-11T15:40:36.946Z,101713.94
2019-04-11T15:41:42.580Z,101709.88
2019-04-11T15:43:21.991Z,101717.91
2019-04-11T15:44:45.581Z,101718.47
2019-04-11T15:46:02.278Z,101716.69
2019-04-11T15:47:09.624Z,101722.24
2019-04-11T15:48:30.287Z,101721.00
2019-04-11T15:50:00.464Z,101720.79
2019-04-11T15:51:28.790Z,101722.09
2019-04-11T15:52:34.692Z,101721.95
2019-04-11T15:53:55.447Z,101723.99
2019-04-11T15:55:17.173Z,101722.34
2019-04-11T15:56:41.837Z,101730.61
2019-04-11T15:57:53.135Z,101728.00
2019-04-11T15:59:04.469Z,101728.00
2019-04-11T16:00:31.561Z,101719.38
2019-04-11T16:02:07.313Z,101720.84
2019-04-11T16:03:13.906Z,101722.89
2019-04-11T16:04:33.915Z,101731.12
2019-04-11T16:05:57.059Z,101727.77
2019-04-11T16:07:24.791Z,101722.89
2019-04-11T16:08:31.561Z,101729.05
2019-04-11T16:09:36.803Z,101725.70
2019-04-11T16:10:47.838Z,101717.81
2019-04-11T16:11:57.900Z,101728.78
2019-04-11T16:13:09.378Z,101720.09
2019-04-11T16:14:42.202Z,101723.58
2019-04-11T16:15:47.801Z,101727.44
2019-04-11T16:17:13.857Z,101721.48
2019-04-11T16:18:49.057Z,101718.40
2019-04-11T16:20:18.204Z,101723.59
2019-04-11T16:21:27.845Z,101721.40
2019-04-11T16:22:49.974Z,101717.98
2019-04-11T16:24:22.324Z,101722.66
2019-04-11T16:25:29.191Z,101727.50
2019-04-11T16:26:50.649Z,101723.64